sensor_id;sensor_type;location;lat;lon;timestamp;pressure;altitude;pressure_sealevel;temperature;humidity
66945;BME280;53853;51.982;5.928;2023-04-29T00:00:55;101307.69;;;11.86;75.73
66945;BME280;53853;51.982;5.928;2023-04-29T00:03:25;101314.03;;;11.85;75.88
66945;BME280;53853;51.982;5.928;2023-04-29T00:05:58;101317.69;;;11.84;75.92
66945;BME280;53853;51.982;5.928;2023-04-29T00:08:30;101317.13;;;11.80;75.92
66945;BME280;53853;51.982;5.928;2023-04-29T00:11:00;101314.03;;;11.75;75.87
66945;BME280;53853;51.982;5.928;2023-04-29T00:13:30;101313.50;;;11.71;76.43
66945;BME280;53853;51.982;5.928;2023-04-29T00:16:00;101319.66;;;11.72;76.59
66945;BME280;53853;51.982;5.928;2023-04-29T00:18:30;101323.19;;;11.72;76.79
66945;BME280;53853;51.982;5.928;2023-04-29T00:20:59;101324.19;;;11.71;76.87
66945;BME280;53853;51.982;5.928;2023-04-29T00:23:34;101323.63;;;11.68;77.21
66945;BME280;53853;51.982;5.928;2023-04-29T00:26:04;101327.13;;;11.68;77.38
66945;BME280;53853;51.982;5.928;2023-04-29T00:28:34;101332.47;;;11.68;77.76
66945;BME280;53853;51.982;5.928;2023-04-29T00:31:04;101336.84;;;11.69;77.57
66945;BME280;53853;51.982;5.928;2023-04-29T00:33:34;101337.41;;;11.63;77.46
66945;BME280;53853;51.982;5.928;2023-04-29T00:36:04;101340.22;;;11.62;77.75
66945;BME280;53853;51.982;5.928;2023-04-29T00:38:37;101349.22;;;11.60;78.02
66945;BME280;53853;51.982;5.928;2023-04-29T00:41:06;101351.19;;;11.58;78.31
66945;BME280;53853;51.982;5.928;2023-04-29T00:43:36;101353.72;;;11.60;78.41
66945;BME280;53853;51.982;5.928;2023-04-29T00:46:06;101353.72;;;11.60;78.15
66945;BME280;53853;51.982;5.928;2023-04-29T00:48:37;101355.69;;;11.58;78.45
66945;BME280;53853;51.982;5.928;2023-04-29T00:51:07;101349.50;;;11.57;78.55
66945;BME280;53853;51.982;5.928;2023-04-29T00:53:40;101345.03;;;11.58;78.79
66945;BME280;53853;51.982;5.928;2023-04-29T00:56:10;101355.69;;;11.58;78.48
66945;BME280;53853;51.982;5.928;2023-04-29T00:58:41;101358.22;;;11.59;78.49
66945;BME280;53853;51.982;5.928;2023-04-29T01:01:16;101359.91;;;11.60;78.45
66945;BME280;53853;51.982;5.928;2023-04-29T01:03:46;101363.56;;;11.59;78.71
66945;BME280;53853;51.982;5.928;2023-04-29T01:06:25;101364.53;;;11.58;78.54
66945;BME280;53853;51.982;5.928;2023-04-29T01:09:15;101366.38;;;11.58;78.34
66945;BME280;53853;51.982;5.928;2023-04-29T01:11:54;101376.06;;;11.59;78.11
66945;BME280;53853;51.982;5.928;2023-04-29T01:14:27;101376.47;;;11.54;78.15
66945;BME280;53853;51.982;5.928;2023-04-29T01:17:02;101368.63;;;11.53;78.51
66945;BME280;53853;51.982;5.928;2023-04-29T01:19:43;101383.50;;;11.55;78.64
66945;BME280;53853;51.982;5.928;2023-04-29T01:22:14;101383.50;;;11.55;78.42
66945;BME280;53853;51.982;5.928;2023-04-29T01:24:48;101383.50;;;11.55;78.37
66945;BME280;53853;51.982;5.928;2023-04-29T01:27:27;101385.50;;;11.53;78.44
66945;BME280;53853;51.982;5.928;2023-04-29T01:30:11;101388.84;;;11.55;78.64
66945;BME280;53853;51.982;5.928;2023-04-29T01:32:52;101390.69;;;11.55;78.58
66945;BME280;53853;51.982;5.928;2023-04-29T01:35:38;101392.34;;;11.56;78.37
66945;BME280;53853;51.982;5.928;2023-04-29T01:38:17;101397.16;;;11.52;78.45
66945;BME280;53853;51.982;5.928;2023-04-29T01:41:01;101399.13;;;11.50;78.59
66945;BME280;53853;51.982;5.928;2023-04-29T01:43:37;101396.59;;;11.49;78.59
66945;BME280;53853;51.982;5.928;2023-04-29T01:46:18;101399.25;;;11.49;78.39
66945;BME280;53853;51.982;5.928;2023-04-29T01:48:52;101408.09;;;11.49;78.31
66945;BME280;53853;51.982;5.928;2023-04-29T01:51:22;101404.47;;;11.50;78.32
66945;BME280;53853;51.982;5.928;2023-04-29T01:53:52;101409.81;;;11.50;78.34
66945;BME280;53853;51.982;5.928;2023-04-29T01:56:25;101413.44;;;11.49;78.18
66945;BME280;53853;51.982;5.928;2023-04-29T01:59:02;101400.09;;;11.49;77.94
66945;BME280;53853;51.982;5.928;2023-04-29T02:01:51;101414.41;;;11.48;77.93
66945;BME280;53853;51.982;5.928;2023-04-29T02:04:22;101408.38;;;11.46;78.10
66945;BME280;53853;51.982;5.928;2023-04-29T02:06:54;101412.88;;;11.46;77.91
66945;BME280;53853;51.982;5.928;2023-04-29T02:09:24;101419.06;;;11.46;78.06
66945;BME280;53853;51.982;5.928;2023-04-29T02:12:04;101412.19;;;11.44;77.89
66945;BME280;53853;51.982;5.928;2023-04-29T02:14:34;101423.16;;;11.40;78.00
66945;BME280;53853;51.982;5.928;2023-04-29T02:17:04;101427.63;;;11.40;78.12
66945;BME280;53853;51.982;5.928;2023-04-29T02:19:34;101426.09;;;11.37;77.92
66945;BME280;53853;51.982;5.928;2023-04-29T02:22:04;101430.03;;;11.33;78.02
66945;BME280;53853;51.982;5.928;2023-04-29T02:24:34;101433.38;;;11.35;78.18
66945;BME280;53853;51.982;5.928;2023-04-29T02:27:06;101441.25;;;11.37;78.40
66945;BME280;53853;51.982;5.928;2023-04-29T02:29:36;101438.03;;;11.33;78.12
66945;BME280;53853;51.982;5.928;2023-04-29T02:32:06;101432.00;;;11.31;78.39
66945;BME280;53853;51.982;5.928;2023-04-29T02:34:38;101432.00;;;11.31;78.29
66945;BME280;53853;51.982;5.928;2023-04-29T02:37:08;101431.13;;;11.31;78.50
66945;BME280;53853;51.982;5.928;2023-04-29T02:39:40;101441.13;;;11.29;78.19
66945;BME280;53853;51.982;5.928;2023-04-29T02:42:12;101447.59;;;11.26;78.56
66945;BME280;53853;51.982;5.928;2023-04-29T02:44:42;101457.41;;;11.26;78.53
66945;BME280;53853;51.982;5.928;2023-04-29T02:47:12;101459.09;;;11.27;78.76
66945;BME280;53853;51.982;5.928;2023-04-29T02:49:42;101459.66;;;11.30;78.62
66945;BME280;53853;51.982;5.928;2023-04-29T02:52:12;101468.63;;;11.29;78.61
66945;BME280;53853;51.982;5.928;2023-04-29T02:54:42;101473.13;;;11.29;78.79
66945;BME280;53853;51.982;5.928;2023-04-29T02:57:15;101479.16;;;11.31;78.70
66945;BME280;53853;51.982;5.928;2023-04-29T02:59:45;101475.66;;;11.30;78.80
66945;BME280;53853;51.982;5.928;2023-04-29T03:02:15;101474.81;;;11.30;78.88
66945;BME280;53853;51.982;5.928;2023-04-29T03:04:48;101472.84;;;11.32;78.98
66945;BME280;53853;51.982;5.928;2023-04-29T03:07:18;101478.19;;;11.32;78.85
66945;BME280;53853;51.982;5.928;2023-04-29T03:09:47;101476.63;;;11.29;78.63
66945;BME280;53853;51.982;5.928;2023-04-29T03:12:20;101475.66;;;11.30;78.50
66945;BME280;53853;51.982;5.928;2023-04-29T03:14:50;101484.50;;;11.31;78.52
66945;BME280;53853;51.982;5.928;2023-04-29T03:17:22;101490.84;;;11.30;78.57
66945;BME280;53853;51.982;5.928;2023-04-29T03:19:52;101489.97;;;11.29;78.55
66945;BME280;53853;51.982;5.928;2023-04-29T03:22:22;101484.81;;;11.28;78.64
66945;BME280;53853;51.982;5.928;2023-04-29T03:24:52;101494.47;;;11.29;78.68
66945;BME280;53853;51.982;5.928;2023-04-29T03:27:25;101485.63;;;11.28;78.62
66945;BME280;53853;51.982;5.928;2023-04-29T03:29:55;101490.16;;;11.28;78.56
66945;BME280;53853;51.982;5.928;2023-04-29T03:32:25;101487.75;;;11.24;78.10
66945;BME280;53853;51.982;5.928;2023-04-29T03:34:55;101493.09;;;11.24;78.32
66945;BME280;53853;51.982;5.928;2023-04-29T03:37:32;101498.56;;;11.23;78.25
66945;BME280;53853;51.982;5.928;2023-04-29T03:40:15;101489.00;;;11.20;77.84
66945;BME280;53853;51.982;5.928;2023-04-29T03:42:48;101483.78;;;11.19;77.82
66945;BME280;53853;51.982;5.928;2023-04-29T03:45:18;101493.91;;;11.15;77.92
66945;BME280;53853;51.982;5.928;2023-04-29T03:47:48;101499.38;;;11.14;77.98
66945;BME280;53853;51.982;5.928;2023-04-29T03:50:19;101499.38;;;11.14;78.12
66945;BME280;53853;51.982;5.928;2023-04-29T03:52:49;101502.03;;;11.14;78.41
66945;BME280;53853;51.982;5.928;2023-04-29T03:55:20;101506.25;;;11.16;78.13
66945;BME280;53853;51.982;5.928;2023-04-29T03:57:52;101511.59;;;11.16;78.23
66945;BME280;53853;51.982;5.928;2023-04-29T04:00:23;101508.22;;;11.14;78.20
66945;BME280;53853;51.982;5.928;2023-04-29T04:02:55;101519.72;;;11.15;78.09
66945;BME280;53853;51.982;5.928;2023-04-29T04:05:25;101529.41;;;11.16;78.05
66945;BME280;53853;51.982;5.928;2023-04-29T04:08:01;101533.47;;;11.10;77.90
66945;BME280;53853;51.982;5.928;2023-04-29T04:10:34;101532.50;;;11.11;77.84
66945;BME280;53853;51.982;5.928;2023-04-29T04:13:15;101537.41;;;11.06;nan
66945;BME280;53853;51.982;5.928;2023-04-29T04:15:49;101530.78;;;11.00;77.60
66945;BME280;53853;51.982;5.928;2023-04-29T04:18:19;101526.56;;;10.98;77.51
66945;BME280;53853;51.982;5.928;2023-04-29T04:20:50;101540.19;;;10.95;77.74
66945;BME280;53853;51.982;5.928;2023-04-29T04:23:19;101547.44;;;10.93;77.73
66945;BME280;53853;51.982;5.928;2023-04-29T04:25:50;101549.84;;;10.96;77.98
66945;BME280;53853;51.982;5.928;2023-04-29T04:28:49;101552.50;;;10.96;78.00
66945;BME280;53853;51.982;5.928;2023-04-29T04:31:29;101548.88;;;10.97;78.03
66945;BME280;53853;51.982;5.928;2023-04-29T04:34:00;101555.66;;;11.01;78.29
66945;BME280;53853;51.982;5.928;2023-04-29T04:36:32;101558.19;;;11.02;78.22
66945;BME280;53853;51.982;5.928;2023-04-29T04:39:02;101564.34;;;11.03;78.03
66945;BME280;53853;51.982;5.928;2023-04-29T04:41:32;101565.91;;;11.05;77.62
66945;BME280;53853;51.982;5.928;2023-04-29T04:44:06;101570.50;;;11.03;77.27
66945;BME280;53853;51.982;5.928;2023-04-29T04:46:46;101578.50;;;11.03;76.76
66945;BME280;53853;51.982;5.928;2023-04-29T04:49:28;101573.00;;;10.95;76.37
66945;BME280;53853;51.982;5.928;2023-04-29T04:51:58;101570.75;;;10.91;76.65
66945;BME280;53853;51.982;5.928;2023-04-29T04:54:28;101577.66;;;10.93;76.77
66945;BME280;53853;51.982;5.928;2023-04-29T04:57:07;101578.63;;;10.92;76.64
66945;BME280;53853;51.982;5.928;2023-04-29T04:59:39;101581.69;;;10.87;76.52
66945;BME280;53853;51.982;5.928;2023-04-29T05:02:09;101585.91;;;10.90;76.37
66945;BME280;53853;51.982;5.928;2023-04-29T05:04:39;101586.75;;;10.91;76.78
66945;BME280;53853;51.982;5.928;2023-04-29T05:07:09;101595.31;;;10.94;76.41
66945;BME280;53853;51.982;5.928;2023-04-29T05:10:00;101587.44;;;10.93;76.10
66945;BME280;53853;51.982;5.928;2023-04-29T05:12:32;101585.66;;;10.93;76.31
66945;BME280;53853;51.982;5.928;2023-04-29T05:15:07;101595.19;;;10.96;76.32
66945;BME280;53853;51.982;5.928;2023-04-29T05:17:37;101596.06;;;10.96;75.93
66945;BME280;53853;51.982;5.928;2023-04-29T05:20:08;101608.97;;;11.01;76.50
66945;BME280;53853;51.982;5.928;2023-04-29T05:22:38;101617.44;;;11.06;75.46
66945;BME280;53853;51.982;5.928;2023-04-29T05:25:09;101620.78;;;11.08;75.65
66945;BME280;53853;51.982;5.928;2023-04-29T05:27:39;101616.03;;;11.12;75.82
66945;BME280;53853;51.982;5.928;2023-04-29T05:30:15;101611.28;;;11.15;75.91
66945;BME280;53853;51.982;5.928;2023-04-29T05:32:46;101610.88;;;11.20;76.06
66945;BME280;53853;51.982;5.928;2023-04-29T05:35:31;101620.16;;;11.26;75.97
66945;BME280;53853;51.982;5.928;2023-04-29T05:38:18;101613.84;;;11.27;75.72
66945;BME280;53853;51.982;5.928;2023-04-29T05:41:02;101625.94;;;11.31;75.95
66945;BME280;53853;51.982;5.928;2023-04-29T05:43:35;101629.88;;;11.36;76.09
66945;BME280;53853;51.982;5.928;2023-04-29T05:46:08;101640.28;;;11.39;75.82
66945;BME280;53853;51.982;5.928;2023-04-29T05:48:38;101643.53;;;11.43;74.81
66945;BME280;53853;51.982;5.928;2023-04-29T05:51:11;101645.22;;;11.44;74.80
66945;BME280;53853;51.982;5.928;2023-04-29T05:53:44;101649.72;;;11.44;74.35
66945;BME280;53853;51.982;5.928;2023-04-29T05:56:16;101648.03;;;11.42;74.26
66945;BME280;53853;51.982;5.928;2023-04-29T05:58:46;101654.22;;;11.43;74.31
66945;BME280;53853;51.982;5.928;2023-04-29T06:01:19;101657.59;;;11.45;73.91
66945;BME280;53853;51.982;5.928;2023-04-29T06:04:06;101660.28;;;11.45;74.21
66945;BME280;53853;51.982;5.928;2023-04-29T06:06:58;101658.72;;;11.52;74.17
66945;BME280;53853;51.982;5.928;2023-04-29T06:10:18;101662.38;;;11.51;73.58
66945;BME280;53853;51.982;5.928;2023-04-29T06:12:58;101669.16;;;11.55;74.13
66945;BME280;53853;51.982;5.928;2023-04-29T06:15:29;101668.19;;;11.56;73.25
66945;BME280;53853;51.982;5.928;2023-04-29T06:18:01;101669.84;;;11.57;73.48
66945;BME280;53853;51.982;5.928;2023-04-29T06:20:32;101673.25;;;11.59;73.21
66945;BME280;53853;51.982;5.928;2023-04-29T06:23:02;101675.78;;;11.61;73.48
66945;BME280;53853;51.982;5.928;2023-04-29T06:25:32;101679.00;;;11.65;73.53
66945;BME280;53853;51.982;5.928;2023-04-29T06:28:10;101692.78;;;11.70;72.96
66945;BME280;53853;51.982;5.928;2023-04-29T06:30:40;101693.22;;;11.75;73.30
66945;BME280;53853;51.982;5.928;2023-04-29T06:33:14;101699.44;;;11.75;72.94
66945;BME280;53853;51.982;5.928;2023-04-29T06:35:44;101691.28;;;11.77;71.68
66945;BME280;53853;51.982;5.928;2023-04-29T06:38:34;101701.09;;;11.76;72.09
66945;BME280;53853;51.982;5.928;2023-04-29T06:41:22;101700.00;;;11.79;72.39
66945;BME280;53853;51.982;5.928;2023-04-29T06:44:02;101708.44;;;11.84;72.51
66945;BME280;53853;51.982;5.928;2023-04-29T06:46:55;101707.31;;;11.87;72.11
66945;BME280;53853;51.982;5.928;2023-04-29T06:49:45;101704.25;;;11.91;72.38
66945;BME280;53853;51.982;5.928;2023-04-29T06:52:15;101718.06;;;11.96;71.99
66945;BME280;53853;51.982;5.928;2023-04-29T06:54:45;101725.78;;;12.00;71.34
66945;BME280;53853;51.982;5.928;2023-04-29T06:57:14;101720.19;;;12.03;71.77
66945;BME280;53853;51.982;5.928;2023-04-29T06:59:46;101723.97;;;12.10;71.36
66945;BME280;53853;51.982;5.928;2023-04-29T07:02:16;101733.28;;;12.16;70.19
66945;BME280;53853;51.982;5.928;2023-04-29T07:04:50;101734.97;;;12.17;70.01
66945;BME280;53853;51.982;5.928;2023-04-29T07:07:20;101730.75;;;12.24;70.70
66945;BME280;53853;51.982;5.928;2023-04-29T07:09:51;101742.88;;;12.28;70.40
66945;BME280;53853;51.982;5.928;2023-04-29T07:12:22;101745.97;;;12.33;69.07
66945;BME280;53853;51.982;5.928;2023-04-29T07:15:06;101750.75;;;12.39;69.64
66945;BME280;53853;51.982;5.928;2023-04-29T07:17:36;101756.53;;;12.44;70.15
66945;BME280;53853;51.982;5.928;2023-04-29T07:20:10;101755.69;;;12.54;69.67
66945;BME280;53853;51.982;5.928;2023-04-29T07:22:40;101756.25;;;12.57;69.28
66945;BME280;53853;51.982;5.928;2023-04-29T07:25:10;101761.88;;;12.64;68.09
66945;BME280;53853;51.982;5.928;2023-04-29T07:27:40;101763.16;;;12.69;68.13
66945;BME280;53853;51.982;5.928;2023-04-29T07:30:11;101761.31;;;12.70;67.60
66945;BME280;53853;51.982;5.928;2023-04-29T07:32:41;101758.06;;;12.76;68.32
66945;BME280;53853;51.982;5.928;2023-04-29T07:35:13;101764.56;;;12.83;67.63
66945;BME280;53853;51.982;5.928;2023-04-29T07:37:43;101761.03;;;12.93;67.78
66945;BME280;53853;51.982;5.928;2023-04-29T07:40:14;101766.50;;;13.01;67.26
66945;BME280;53853;51.982;5.928;2023-04-29T07:42:47;101767.59;;;13.08;66.03
66945;BME280;53853;51.982;5.928;2023-04-29T07:45:17;101789.16;;;13.16;66.42
66945;BME280;53853;51.982;5.928;2023-04-29T07:47:47;101789.56;;;13.21;65.97
66945;BME280;53853;51.982;5.928;2023-04-29T07:50:20;101790.97;;;13.26;65.49
66945;BME280;53853;51.982;5.928;2023-04-29T07:52:50;101795.19;;;13.38;65.65
66945;BME280;53853;51.982;5.928;2023-04-29T07:55:21;101787.84;;;13.50;65.90
66945;BME280;53853;51.982;5.928;2023-04-29T07:57:52;101791.75;;;13.55;62.47
66945;BME280;53853;51.982;5.928;2023-04-29T08:00:23;101797.94;;;13.56;62.97
66945;BME280;53853;51.982;5.928;2023-04-29T08:02:54;101799.50;;;13.58;62.39
66945;BME280;53853;51.982;5.928;2023-04-29T08:05:27;101799.31;;;13.70;63.29
66945;BME280;53853;51.982;5.928;2023-04-29T08:07:58;101804.63;;;13.80;63.16
66945;BME280;53853;51.982;5.928;2023-04-29T08:10:28;101811.97;;;13.77;60.61
66945;BME280;53853;51.982;5.928;2023-04-29T08:12:57;101815.50;;;13.78;60.05
66945;BME280;53853;51.982;5.928;2023-04-29T08:15:28;101815.78;;;13.85;61.69
66945;BME280;53853;51.982;5.928;2023-04-29T08:17:59;101814.88;;;13.94;60.51
66945;BME280;53853;51.982;5.928;2023-04-29T08:20:32;101823.03;;;14.02;61.16
66945;BME280;53853;51.982;5.928;2023-04-29T08:23:02;101821.97;;;14.13;61.45
66945;BME280;53853;51.982;5.928;2023-04-29T08:25:32;101818.25;;;14.24;61.83
66945;BME280;53853;51.982;5.928;2023-04-29T08:28:02;101820.13;;;14.41;62.22
66945;BME280;53853;51.982;5.928;2023-04-29T08:30:38;101818.91;;;14.54;59.43
66945;BME280;53853;51.982;5.928;2023-04-29T08:33:08;101826.38;;;14.60;58.61
66945;BME280;53853;51.982;5.928;2023-04-29T08:35:41;101826.09;;;14.63;60.01
66945;BME280;53853;51.982;5.928;2023-04-29T08:38:13;101823.63;;;14.70;57.55
66945;BME280;53853;51.982;5.928;2023-04-29T08:40:44;101831.53;;;14.71;57.97
66945;BME280;53853;51.982;5.928;2023-04-29T08:43:15;101832.34;;;14.72;58.20
66945;BME280;53853;51.982;5.928;2023-04-29T08:45:48;101836.38;;;14.67;56.55
66945;BME280;53853;51.982;5.928;2023-04-29T08:48:18;101839.50;;;14.63;56.40
66945;BME280;53853;51.982;5.928;2023-04-29T08:50:51;101837.25;;;14.58;56.67
66945;BME280;53853;51.982;5.928;2023-04-29T08:53:21;101838.81;;;14.61;58.07
66945;BME280;53853;51.982;5.928;2023-04-29T08:55:51;101839.56;;;14.71;56.44
66945;BME280;53853;51.982;5.928;2023-04-29T08:58:25;101842.63;;;14.76;57.05
66945;BME280;53853;51.982;5.928;2023-04-29T09:00:57;101846.03;;;14.78;56.54
66945;BME280;53853;51.982;5.928;2023-04-29T09:03:30;101839.88;;;14.68;55.06
66945;BME280;53853;51.982;5.928;2023-04-29T09:06:06;101841.72;;;14.67;56.33
66945;BME280;53853;51.982;5.928;2023-04-29T09:08:36;101842.91;;;14.55;56.40
66945;BME280;53853;51.982;5.928;2023-04-29T09:11:08;101848.81;;;14.59;57.06
66945;BME280;53853;51.982;5.928;2023-04-29T09:13:39;101848.53;;;14.62;57.52
66945;BME280;53853;51.982;5.928;2023-04-29T09:16:10;101841.34;;;14.62;57.47
66945;BME280;53853;51.982;5.928;2023-04-29T09:18:45;101841.56;;;14.69;57.33
66945;BME280;53853;51.982;5.928;2023-04-29T09:21:19;101847.03;;;14.77;56.52
66945;BME280;53853;51.982;5.928;2023-04-29T09:23:51;101844.41;;;14.85;56.41
66945;BME280;53853;51.982;5.928;2023-04-29T09:26:21;101845.66;;;14.91;56.04
66945;BME280;53853;51.982;5.928;2023-04-29T09:29:06;101856.00;;;15.04;53.80
66945;BME280;53853;51.982;5.928;2023-04-29T09:31:37;101852.75;;;15.18;54.54
66945;BME280;53853;51.982;5.928;2023-04-29T09:34:08;101861.94;;;15.34;55.36
66945;BME280;53853;51.982;5.928;2023-04-29T09:36:45;101865.31;;;15.36;51.83
66945;BME280;53853;51.982;5.928;2023-04-29T09:39:17;101866.03;;;15.46;53.31
66945;BME280;53853;51.982;5.928;2023-04-29T09:41:58;101876.31;;;15.51;53.09
66945;BME280;53853;51.982;5.928;2023-04-29T09:44:30;101874.09;;;15.64;52.61
66945;BME280;53853;51.982;5.928;2023-04-29T09:47:03;101871.75;;;15.69;53.42
66945;BME280;53853;51.982;5.928;2023-04-29T09:49:34;101876.06;;;15.80;51.31
66945;BME280;53853;51.982;5.928;2023-04-29T09:52:09;101876.06;;;15.80;51.80
66945;BME280;53853;51.982;5.928;2023-04-29T09:54:40;101885.31;;;15.86;52.53
66945;BME280;53853;51.982;5.928;2023-04-29T09:57:11;101878.78;;;15.88;51.45
66945;BME280;53853;51.982;5.928;2023-04-29T09:59:41;101880.97;;;15.85;51.07
66945;BME280;53853;51.982;5.928;2023-04-29T10:02:13;101879.75;;;15.79;52.04
66945;BME280;53853;51.982;5.928;2023-04-29T10:04:45;101883.44;;;15.78;52.27
66945;BME280;53853;51.982;5.928;2023-04-29T10:07:19;101881.13;;;15.83;52.84
66945;BME280;53853;51.982;5.928;2023-04-29T10:09:49;101879.47;;;15.90;53.18
66945;BME280;53853;51.982;5.928;2023-04-29T10:12:20;101886.56;;;16.00;53.53
66945;BME280;53853;51.982;5.928;2023-04-29T10:14:56;101887.84;;;16.14;53.03
66945;BME280;53853;51.982;5.928;2023-04-29T10:17:35;101887.38;;;16.26;50.97
66945;BME280;53853;51.982;5.928;2023-04-29T10:20:06;101887.75;;;16.40;52.02
66945;BME280;53853;51.982;5.928;2023-04-29T10:22:42;101885.78;;;16.50;52.01
66945;BME280;53853;51.982;5.928;2023-04-29T10:25:14;101888.50;;;16.58;51.42
66945;BME280;53853;51.982;5.928;2023-04-29T10:27:46;101883.47;;;16.63;49.82
66945;BME280;53853;51.982;5.928;2023-04-29T10:30:19;101887.34;;;16.61;49.77
66945;BME280;53853;51.982;5.928;2023-04-29T10:32:50;101883.94;;;16.51;50.23
66945;BME280;53853;51.982;5.928;2023-04-29T10:35:20;101893.19;;;16.48;50.91
66945;BME280;53853;51.982;5.928;2023-04-29T10:37:55;101901.53;;;16.37;48.73
66945;BME280;53853;51.982;5.928;2023-04-29T10:40:35;101886.72;;;16.24;49.76
66945;BME280;53853;51.982;5.928;2023-04-29T10:43:05;101907.84;;;16.19;49.64
66945;BME280;53853;51.982;5.928;2023-04-29T10:45:35;101898.28;;;16.17;50.69
66945;BME280;53853;51.982;5.928;2023-04-29T10:48:12;101905.66;;;16.15;51.24
66945;BME280;53853;51.982;5.928;2023-04-29T10:51:00;101897.75;;;16.13;51.71
66945;BME280;53853;51.982;5.928;2023-04-29T10:53:36;101911.53;;;16.10;51.69
66945;BME280;53853;51.982;5.928;2023-04-29T10:56:39;101900.91;;;16.08;50.40
66945;BME280;53853;51.982;5.928;2023-04-29T10:59:13;101907.09;;;16.01;49.54
66945;BME280;53853;51.982;5.928;2023-04-29T11:01:45;101909.47;;;16.04;50.50
66945;BME280;53853;51.982;5.928;2023-04-29T11:04:17;101905.44;;;16.08;50.04
66945;BME280;53853;51.982;5.928;2023-04-29T11:06:54;101903.84;;;16.23;52.12
66945;BME280;53853;51.982;5.928;2023-04-29T11:09:31;101900.72;;;16.44;52.46
66945;BME280;53853;51.982;5.928;2023-04-29T11:12:06;101903.00;;;16.65;52.52
66945;BME280;53853;51.982;5.928;2023-04-29T11:14:39;101901.34;;;16.81;50.67
66945;BME280;53853;51.982;5.928;2023-04-29T11:17:11;101897.03;;;16.88;50.76
66945;BME280;53853;51.982;5.928;2023-04-29T11:19:43;101898.38;;;16.92;49.44
66945;BME280;53853;51.982;5.928;2023-04-29T11:22:25;101898.88;;;16.96;48.39
66945;BME280;53853;51.982;5.928;2023-04-29T11:25:00;101896.69;;;16.91;48.47
66945;BME280;53853;51.982;5.928;2023-04-29T11:27:32;101910.44;;;16.80;48.58
66945;BME280;53853;51.982;5.928;2023-04-29T11:30:04;101912.44;;;16.78;49.32
66945;BME280;53853;51.982;5.928;2023-04-29T11:32:35;101913.47;;;16.77;48.80
66945;BME280;53853;51.982;5.928;2023-04-29T11:35:09;101906.38;;;16.76;49.11
66945;BME280;53853;51.982;5.928;2023-04-29T11:37:41;101899.28;;;16.75;49.48
66945;BME280;53853;51.982;5.928;2023-04-29T11:40:14;101912.09;;;16.81;50.82
66945;BME280;53853;51.982;5.928;2023-04-29T11:42:46;101903.25;;;16.97;49.60
66945;BME280;53853;51.982;5.928;2023-04-29T11:45:17;101893.19;;;17.07;48.11
66945;BME280;53853;51.982;5.928;2023-04-29T11:47:48;101896.88;;;17.06;48.89
66945;BME280;53853;51.982;5.928;2023-04-29T11:50:18;101894.53;;;17.11;50.20
66945;BME280;53853;51.982;5.928;2023-04-29T11:52:49;101901.09;;;17.17;51.33
66945;BME280;53853;51.982;5.928;2023-04-29T11:55:21;101913.22;;;17.21;49.98
66945;BME280;53853;51.982;5.928;2023-04-29T11:57:52;101913.88;;;17.15;46.44
66945;BME280;53853;51.982;5.928;2023-04-29T12:00:22;101908.50;;;17.07;46.38
66945;BME280;53853;51.982;5.928;2023-04-29T12:02:53;101918.91;;;17.01;45.17
66945;BME280;53853;51.982;5.928;2023-04-29T12:05:25;101920.91;;;16.91;45.84
66945;BME280;53853;51.982;5.928;2023-04-29T12:07:55;101919.22;;;16.90;46.96
66945;BME280;53853;51.982;5.928;2023-04-29T12:10:27;101913.69;;;16.92;47.28
66945;BME280;53853;51.982;5.928;2023-04-29T12:12:57;101916.53;;;16.90;46.90
66945;BME280;53853;51.982;5.928;2023-04-29T12:15:27;101922.78;;;16.91;47.74
66945;BME280;53853;51.982;5.928;2023-04-29T12:17:58;101913.84;;;16.98;47.19
66945;BME280;53853;51.982;5.928;2023-04-29T12:20:29;101902.41;;;17.13;49.51
66945;BME280;53853;51.982;5.928;2023-04-29T12:23:11;101907.16;;;17.35;47.60
66945;BME280;53853;51.982;5.928;2023-04-29T12:25:48;101910.50;;;17.46;48.26
66945;BME280;53853;51.982;5.928;2023-04-29T12:28:19;101907.16;;;17.44;46.72
66945;BME280;53853;51.982;5.928;2023-04-29T12:30:50;101910.50;;;17.46;47.02
66945;BME280;53853;51.982;5.928;2023-04-29T12:33:21;101907.31;;;17.50;48.94
66945;BME280;53853;51.982;5.928;2023-04-29T12:35:53;101910.16;;;17.57;49.88
66945;BME280;53853;51.982;5.928;2023-04-29T12:38:24;101911.53;;;17.61;48.05
66945;BME280;53853;51.982;5.928;2023-04-29T12:40:59;101912.88;;;17.57;46.55
66945;BME280;53853;51.982;5.928;2023-04-29T12:43:31;101908.00;;;17.61;48.61
66945;BME280;53853;51.982;5.928;2023-04-29T12:46:02;101900.72;;;17.69;49.22
66945;BME280;53853;51.982;5.928;2023-04-29T12:48:34;101907.63;;;17.80;49.09
66945;BME280;53853;51.982;5.928;2023-04-29T12:51:07;101898.34;;;17.83;46.29
66945;BME280;53853;51.982;5.928;2023-04-29T12:53:37;101906.81;;;17.88;47.35
66945;BME280;53853;51.982;5.928;2023-04-29T12:56:11;101907.78;;;17.95;45.34
66945;BME280;53853;51.982;5.928;2023-04-29T12:58:41;101899.34;;;17.98;46.90
66945;BME280;53853;51.982;5.928;2023-04-29T13:01:11;101901.19;;;18.06;47.90
66945;BME280;53853;51.982;5.928;2023-04-29T13:03:42;101908.44;;;18.05;47.69
66945;BME280;53853;51.982;5.928;2023-04-29T13:06:12;101906.75;;;18.04;47.61
66945;BME280;53853;51.982;5.928;2023-04-29T13:08:42;101908.44;;;18.05;44.90
66945;BME280;53853;51.982;5.928;2023-04-29T13:11:14;101911.13;;;18.05;44.42
66945;BME280;53853;51.982;5.928;2023-04-29T13:13:44;101910.47;;;17.95;45.12
66945;BME280;53853;51.982;5.928;2023-04-29T13:16:14;101914.72;;;17.89;44.66
66945;BME280;53853;51.982;5.928;2023-04-29T13:18:45;101908.47;;;17.89;44.99
66945;BME280;53853;51.982;5.928;2023-04-29T13:21:15;101908.28;;;17.99;45.60